Pagina principale
METAR-TAF:

METAR-TAF

Aeroporti :

Luni

Sarzana, Italia

latitudine: 44-05N, longitudine: 009-59E, altezza: 9 m

Osservazione

Il bollettino è stato emesso 19 minuti fa, alle 09:55 UTC
Vento 8 kt da nord/nord-ovest
Temperature 15°C
Umidità 44%
Pressione 1013 hPa
Visibilità 10 km o più
Poco nuvoloso ad un'altezza di 3000 ft

METAR: LIQW 090955Z 33008KT 9999 FEW030 15/03 Q1013

Ora: 11:14 (10:14 UTC)

Previsione

Il bollettino è stato emesso 2 ore e 14 minuti fa, alle 08:00 UTC
Previsione valida dal 09 alle 09 UTC al 09 alle 18 UTC
Vento 5 kt da ovest
Visibilità 10 km o più
Nubi sparse ad un'altezza di 4000 ft

TAF: LIQW 090800Z 0909/0918 28005KT 9999 SCT040

Osservazioni e previsioni meteorologiche di più di 4000 aeroporti (messaggi METAR e TAF).

Le stazioni disponibili sono rappresentate dai dischi gialli e rossi sulla carta.

Puntare il mouse per vedere il nome della stazione.

Clicca sopra per visualizzare le osservazioni e previsioni meteorologiche.

Per cambiare la mappa : fare clic sui pulsanti verdi con una croce nera per ingrandire, il pulsante verde con un trattino per diminuire, o sulla freccia verde per le mappe adiacenti.


METAR-TAF: